sensor_id;sensor_type;location;lat;lon;timestamp;pressure;altitude;pressure_sealevel;temperature;humidity
43155;BME280;34212;51.018;13.586;2022-07-10T00:00:47;98313.88;;;17.28;57.06
43155;BME280;34212;51.018;13.586;2022-07-10T00:05:48;98325.94;;;17.26;56.43
43155;BME280;34212;51.018;13.586;2022-07-10T00:10:50;98323.84;;;17.21;56.38
43155;BME280;34212;51.018;13.586;2022-07-10T00:15:52;98326.97;;;17.18;55.67
43155;BME280;34212;51.018;13.586;2022-07-10T00:20:54;98328.00;;;17.17;55.94
43155;BME280;34212;51.018;13.586;2022-07-10T00:25:55;98325.94;;;17.13;55.27
43155;BME280;34212;51.018;13.586;2022-07-10T00:30:57;98341.28;;;17.05;54.73
43155;BME280;34212;51.018;13.586;2022-07-10T00:35:58;98340.25;;;16.93;54.38
43155;BME280;34212;51.018;13.586;2022-07-10T00:41:00;98346.25;;;16.82;54.47
43155;BME280;34212;51.018;13.586;2022-07-10T00:46:01;98337.94;;;16.70;54.20
43155;BME280;34212;51.018;13.586;2022-07-10T00:51:03;98340.41;;;16.58;53.92
43155;BME280;34212;51.018;13.586;2022-07-10T00:56:06;98330.22;;;16.47;53.79
43155;BME280;34212;51.018;13.586;2022-07-10T01:01:08;98331.69;;;16.43;53.98
43155;BME280;34212;51.018;13.586;2022-07-10T01:06:09;98338.28;;;16.34;53.91
43155;BME280;34212;51.018;13.586;2022-07-10T01:11:12;98327.09;;;16.24;53.89
43155;BME280;34212;51.018;13.586;2022-07-10T01:16:14;98332.47;;;16.17;54.20
43155;BME280;34212;51.018;13.586;2022-07-10T01:21:29;98329.97;;;16.15;54.51
43155;BME280;34212;51.018;13.586;2022-07-10T01:26:30;98328.72;;;16.11;54.75
43155;BME280;34212;51.018;13.586;2022-07-10T01:31:33;98327.03;;;16.10;54.80
43155;BME280;34212;51.018;13.586;2022-07-10T01:36:35;98324.16;;;16.05;54.73
43155;BME280;34212;51.018;13.586;2022-07-10T01:41:37;98323.31;;;16.05;55.18
43155;BME280;34212;51.018;13.586;2022-07-10T01:46:46;98314.84;;;16.01;54.96
43155;BME280;34212;51.018;13.586;2022-07-10T01:51:47;98314.19;;;15.99;55.41
43155;BME280;34212;51.018;13.586;2022-07-10T01:56:49;98310.03;;;15.90;55.73
43155;BME280;34212;51.018;13.586;2022-07-10T02:01:54;98303.00;;;15.89;55.82
43155;BME280;34212;51.018;13.586;2022-07-10T02:06:55;98299.84;;;15.85;56.28
43155;BME280;34212;51.018;13.586;2022-07-10T02:11:57;98305.84;;;15.81;56.55
43155;BME280;34212;51.018;13.586;2022-07-10T02:16:58;98306.25;;;15.78;56.53
43155;BME280;34212;51.018;13.586;2022-07-10T02:22:00;98306.03;;;15.73;56.66
43155;BME280;34212;51.018;13.586;2022-07-10T02:27:02;98295.47;;;15.71;57.18
43155;BME280;34212;51.018;13.586;2022-07-10T02:32:04;98299.59;;;15.67;57.28
43155;BME280;34212;51.018;13.586;2022-07-10T02:37:05;98297.03;;;15.59;57.05
43155;BME280;34212;51.018;13.586;2022-07-10T02:42:07;98295.16;;;15.53;57.37
43155;BME280;34212;51.018;13.586;2022-07-10T02:47:08;98290.41;;;15.55;57.13
43155;BME280;34212;51.018;13.586;2022-07-10T02:52:10;98282.13;;;15.50;57.26
43155;BME280;34212;51.018;13.586;2022-07-10T02:57:11;98282.09;;;15.43;57.47
43155;BME280;34212;51.018;13.586;2022-07-10T03:02:13;98285.31;;;15.32;57.49
43155;BME280;34212;51.018;13.586;2022-07-10T03:07:14;98286.53;;;15.29;58.07
43155;BME280;34212;51.018;13.586;2022-07-10T03:12:16;98281.56;;;15.26;57.97
43155;BME280;34212;51.018;13.586;2022-07-10T03:17:17;98272.94;;;15.31;58.07
43155;BME280;34212;51.018;13.586;2022-07-10T03:22:19;98273.34;;;15.34;58.05
43155;BME280;34212;51.018;13.586;2022-07-10T03:27:20;98273.06;;;15.22;57.64
43155;BME280;34212;51.018;13.586;2022-07-10T03:32:22;98265.81;;;15.16;57.68
43155;BME280;34212;51.018;13.586;2022-07-10T03:37:23;98264.41;;;15.20;57.63
43155;BME280;34212;51.018;13.586;2022-07-10T03:42:25;98260.03;;;15.19;58.12
43155;BME280;34212;51.018;13.586;2022-07-10T03:47:26;98264.81;;;15.17;57.88
43155;BME280;34212;51.018;13.586;2022-07-10T03:52:28;98270.78;;;15.19;58.05
43155;BME280;34212;51.018;13.586;2022-07-10T03:57:29;98263.75;;;15.18;57.81
43155;BME280;34212;51.018;13.586;2022-07-10T04:03:00;98257.75;;;15.16;57.87
43155;BME280;34212;51.018;13.586;2022-07-10T04:08:03;98262.13;;;15.17;58.09
43155;BME280;34212;51.018;13.586;2022-07-10T04:13:04;98258.38;;;15.18;57.56
43155;BME280;34212;51.018;13.586;2022-07-10T04:18:06;98259.44;;;15.17;58.02
43155;BME280;34212;51.018;13.586;2022-07-10T04:23:07;98255.06;;;15.16;57.80
43155;BME280;34212;51.018;13.586;2022-07-10T04:28:09;98258.56;;;15.17;57.71
43155;BME280;34212;51.018;13.586;2022-07-10T04:33:10;98252.22;;;15.24;58.09
43155;BME280;34212;51.018;13.586;2022-07-10T04:38:12;98259.09;;;15.34;58.08
43155;BME280;34212;51.018;13.586;2022-07-10T04:43:13;98255.75;;;15.32;57.77
43155;BME280;34212;51.018;13.586;2022-07-10T04:48:15;98258.84;;;15.29;57.75
43155;BME280;34212;51.018;13.586;2022-07-10T04:53:16;98258.03;;;15.28;58.01
43155;BME280;34212;51.018;13.586;2022-07-10T04:58:17;98257.06;;;15.42;57.99
43155;BME280;34212;51.018;13.586;2022-07-10T05:03:19;98259.38;;;15.52;57.74
43155;BME280;34212;51.018;13.586;2022-07-10T05:08:21;98254.47;;;15.62;57.28
43155;BME280;34212;51.018;13.586;2022-07-10T05:13:22;98250.72;;;15.63;57.51
43155;BME280;34212;51.018;13.586;2022-07-10T05:18:24;98258.19;;;15.61;57.16
43155;BME280;34212;51.018;13.586;2022-07-10T05:23:25;98251.81;;;15.69;57.12
43155;BME280;34212;51.018;13.586;2022-07-10T05:28:27;98242.94;;;15.75;57.30
43155;BME280;34212;51.018;13.586;2022-07-10T05:33:28;98241.31;;;15.81;56.88
43155;BME280;34212;51.018;13.586;2022-07-10T05:38:30;98254.94;;;15.79;57.33
43155;BME280;34212;51.018;13.586;2022-07-10T05:43:31;98249.97;;;15.76;57.70
43155;BME280;34212;51.018;13.586;2022-07-10T05:48:33;98275.50;;;15.52;59.83
43155;BME280;34212;51.018;13.586;2022-07-10T05:53:35;98276.84;;;14.93;62.21
43155;BME280;34212;51.018;13.586;2022-07-10T05:58:36;98275.19;;;14.64;63.89
43155;BME280;34212;51.018;13.586;2022-07-10T06:03:38;98275.22;;;14.49;64.68
43155;BME280;34212;51.018;13.586;2022-07-10T06:08:42;98262.13;;;14.40;65.25
43155;BME280;34212;51.018;13.586;2022-07-10T06:13:44;98278.38;;;14.31;66.38
43155;BME280;34212;51.018;13.586;2022-07-10T06:18:45;98267.38;;;14.26;67.04
43155;BME280;34212;51.018;13.586;2022-07-10T06:23:47;98269.28;;;14.32;67.87
43155;BME280;34212;51.018;13.586;2022-07-10T06:28:48;98277.84;;;14.43;68.21
43155;BME280;34212;51.018;13.586;2022-07-10T06:33:50;98271.47;;;14.44;68.62
43155;BME280;34212;51.018;13.586;2022-07-10T06:38:51;98277.47;;;14.46;68.59
43155;BME280;34212;51.018;13.586;2022-07-10T06:43:53;98277.97;;;14.35;68.87
43155;BME280;34212;51.018;13.586;2022-07-10T06:48:54;98285.38;;;14.32;68.73
43155;BME280;34212;51.018;13.586;2022-07-10T06:53:57;98290.75;;;14.32;68.63
43155;BME280;34212;51.018;13.586;2022-07-10T06:58:58;98291.34;;;14.28;68.85
43155;BME280;34212;51.018;13.586;2022-07-10T07:03:59;98293.41;;;14.11;68.84
43155;BME280;34212;51.018;13.586;2022-07-10T07:09:01;98289.59;;;13.99;69.26
43155;BME280;34212;51.018;13.586;2022-07-10T07:14:03;98286.91;;;13.99;69.83
43155;BME280;34212;51.018;13.586;2022-07-10T07:19:05;98274.78;;;14.03;69.32
43155;BME280;34212;51.018;13.586;2022-07-10T07:24:07;98264.78;;;14.12;69.46
43155;BME280;34212;51.018;13.586;2022-07-10T07:29:08;98269.66;;;14.29;69.67
43155;BME280;34212;51.018;13.586;2022-07-10T07:34:11;98271.00;;;14.40;69.55
43155;BME280;34212;51.018;13.586;2022-07-10T07:39:12;98274.88;;;14.52;69.33
43155;BME280;34212;51.018;13.586;2022-07-10T07:44:14;98270.00;;;14.63;69.52
43155;BME280;34212;51.018;13.586;2022-07-10T07:49:18;98284.19;;;14.85;70.00
43155;BME280;34212;51.018;13.586;2022-07-10T07:54:20;98283.75;;;15.09;69.93
43155;BME280;34212;51.018;13.586;2022-07-10T07:59:21;98267.13;;;15.27;69.48
43155;BME280;34212;51.018;13.586;2022-07-10T08:04:23;98276.28;;;15.39;69.11
43155;BME280;34212;51.018;13.586;2022-07-10T08:09:25;98281.66;;;15.39;68.93
43155;BME280;34212;51.018;13.586;2022-07-10T08:14:26;98283.19;;;15.55;68.17
43155;BME280;34212;51.018;13.586;2022-07-10T08:19:28;98283.00;;;15.63;66.95
43155;BME280;34212;51.018;13.586;2022-07-10T08:24:29;98278.53;;;15.70;67.38
43155;BME280;34212;51.018;13.586;2022-07-10T08:29:31;98280.69;;;15.95;66.98
43155;BME280;34212;51.018;13.586;2022-07-10T08:34:33;98267.25;;;16.22;66.84
43155;BME280;34212;51.018;13.586;2022-07-10T08:39:34;98267.91;;;16.24;65.33
43155;BME280;34212;51.018;13.586;2022-07-10T08:44:36;98263.28;;;16.04;64.24
43155;BME280;34212;51.018;13.586;2022-07-10T08:49:39;98246.34;;;16.10;64.78
43155;BME280;34212;51.018;13.586;2022-07-10T08:54:47;98260.03;;;16.29;64.79
43155;BME280;34212;51.018;13.586;2022-07-10T08:59:48;98270.00;;;16.61;63.52
43155;BME280;34212;51.018;13.586;2022-07-10T09:04:50;98263.97;;;16.66;61.39
43155;BME280;34212;51.018;13.586;2022-07-10T09:15:14;98251.97;;;16.82;60.70
43155;BME280;34212;51.018;13.586;2022-07-10T09:20:27;98252.19;;;16.80;59.12
43155;BME280;34212;51.018;13.586;2022-07-10T09:25:33;98256.75;;;16.80;58.13
43155;BME280;34212;51.018;13.586;2022-07-10T09:30:37;98255.31;;;16.77;57.53
43155;BME280;34212;51.018;13.586;2022-07-10T09:36:07;98256.13;;;16.78;57.06
43155;BME280;34212;51.018;13.586;2022-07-10T09:41:17;98256.75;;;16.80;56.44
43155;BME280;34212;51.018;13.586;2022-07-10T09:46:21;98269.97;;;16.75;55.60
43155;BME280;34212;51.018;13.586;2022-07-10T09:51:23;98268.75;;;16.71;54.90
43155;BME280;34212;51.018;13.586;2022-07-10T09:56:26;98259.44;;;16.67;54.90
43155;BME280;34212;51.018;13.586;2022-07-10T10:01:29;98262.56;;;16.63;54.97
43155;BME280;34212;51.018;13.586;2022-07-10T10:06:31;98256.13;;;16.78;55.76
43155;BME280;34212;51.018;13.586;2022-07-10T10:11:36;98253.59;;;17.09;55.50
43155;BME280;34212;51.018;13.586;2022-07-10T10:16:39;98252.47;;;17.37;53.43
43155;BME280;34212;51.018;13.586;2022-07-10T10:21:41;98251.56;;;17.57;52.98
43155;BME280;34212;51.018;13.586;2022-07-10T10:26:43;98253.56;;;17.74;52.25
43155;BME280;34212;51.018;13.586;2022-07-10T10:31:45;98266.47;;;17.79;52.19
43155;BME280;34212;51.018;13.586;2022-07-10T10:36:47;98271.00;;;17.72;52.61
43155;BME280;34212;51.018;13.586;2022-07-10T10:41:57;98274.97;;;17.76;54.00
43155;BME280;34212;51.018;13.586;2022-07-10T10:47:01;98270.53;;;17.95;54.98
43155;BME280;34212;51.018;13.586;2022-07-10T10:52:10;98268.75;;;18.14;54.47
43155;BME280;34212;51.018;13.586;2022-07-10T10:57:17;98278.31;;;18.16;54.41
43155;BME280;34212;51.018;13.586;2022-07-10T11:13:09;98273.88;;;17.90;54.16
43155;BME280;34212;51.018;13.586;2022-07-10T11:18:15;98268.94;;;17.74;53.94
43155;BME280;34212;51.018;13.586;2022-07-10T11:23:51;98275.97;;;17.82;53.29
43155;BME280;34212;51.018;13.586;2022-07-10T11:29:03;98276.31;;;17.98;52.46
43155;BME280;34212;51.018;13.586;2022-07-10T11:34:06;98274.75;;;18.22;52.24
43155;BME280;34212;51.018;13.586;2022-07-10T11:39:09;98273.53;;;18.43;51.76
43155;BME280;34212;51.018;13.586;2022-07-10T11:44:15;98258.06;;;18.57;51.54
43155;BME280;34212;51.018;13.586;2022-07-10T11:49:22;98256.97;;;18.65;50.73
43155;BME280;34212;51.018;13.586;2022-07-10T11:54:23;98264.00;;;18.66;49.86
43155;BME280;34212;51.018;13.586;2022-07-10T11:59:26;98262.94;;;18.74;50.64
43155;BME280;34212;51.018;13.586;2022-07-10T12:04:29;98268.34;;;18.74;50.87
43155;BME280;34212;51.018;13.586;2022-07-10T12:09:31;98267.19;;;18.56;50.80
43155;BME280;34212;51.018;13.586;2022-07-10T12:14:33;98263.13;;;18.47;50.54
43155;BME280;34212;51.018;13.586;2022-07-10T12:19:37;98285.66;;;18.34;49.94
43155;BME280;34212;51.018;13.586;2022-07-10T12:24:40;98282.41;;;18.26;50.19
43155;BME280;34212;51.018;13.586;2022-07-10T12:29:42;98287.53;;;18.34;50.59
43155;BME280;34212;51.018;13.586;2022-07-10T12:34:43;98285.56;;;18.48;50.74
43155;BME280;34212;51.018;13.586;2022-07-10T12:39:51;98290.53;;;18.51;50.92
43155;BME280;34212;51.018;13.586;2022-07-10T12:45:08;98285.66;;;18.34;50.89
43155;BME280;34212;51.018;13.586;2022-07-10T12:50:11;98284.38;;;18.37;51.10
43155;BME280;34212;51.018;13.586;2022-07-10T12:55:20;98291.00;;;18.66;51.11
43155;BME280;34212;51.018;13.586;2022-07-10T13:00:29;98290.13;;;19.04;50.72
43155;BME280;34212;51.018;13.586;2022-07-10T13:05:37;98288.78;;;19.50;49.63
43155;BME280;34212;51.018;13.586;2022-07-10T13:10:44;98284.31;;;19.80;48.93
43155;BME280;34212;51.018;13.586;2022-07-10T13:15:47;98275.28;;;19.87;48.19
43155;BME280;34212;51.018;13.586;2022-07-10T13:20:56;98276.19;;;19.80;48.73
43155;BME280;34212;51.018;13.586;2022-07-10T13:26:02;98267.50;;;19.90;48.09
43155;BME280;34212;51.018;13.586;2022-07-10T13:31:05;98262.31;;;20.07;47.23
43155;BME280;34212;51.018;13.586;2022-07-10T13:36:06;98276.06;;;20.05;46.11
43155;BME280;34212;51.018;13.586;2022-07-10T13:41:08;98267.13;;;20.05;45.36
43155;BME280;34212;51.018;13.586;2022-07-10T13:46:10;98264.03;;;20.01;45.05
43155;BME280;34212;51.018;13.586;2022-07-10T13:51:12;98268.50;;;19.96;45.13
43155;BME280;34212;51.018;13.586;2022-07-10T13:56:13;98270.66;;;19.75;45.15
43155;BME280;34212;51.018;13.586;2022-07-10T14:01:17;98259.88;;;19.69;45.49
43155;BME280;34212;51.018;13.586;2022-07-10T14:06:19;98264.84;;;19.72;45.28
43155;BME280;34212;51.018;13.586;2022-07-10T14:11:21;98259.50;;;19.65;45.49
43155;BME280;34212;51.018;13.586;2022-07-10T14:16:23;98263.69;;;19.61;46.00
43155;BME280;34212;51.018;13.586;2022-07-10T14:21:24;98247.41;;;19.68;46.32
43155;BME280;34212;51.018;13.586;2022-07-10T14:26:28;98251.81;;;19.80;45.96
43155;BME280;34212;51.018;13.586;2022-07-10T14:31:30;98248.44;;;20.15;45.21
43155;BME280;34212;51.018;13.586;2022-07-10T14:36:32;98233.44;;;20.43;45.14
43155;BME280;34212;51.018;13.586;2022-07-10T14:41:33;98253.88;;;20.57;44.73
43155;BME280;34212;51.018;13.586;2022-07-10T14:46:35;98243.13;;;20.62;43.95
43155;BME280;34212;51.018;13.586;2022-07-10T14:51:36;98252.16;;;20.44;43.73
43155;BME280;34212;51.018;13.586;2022-07-10T14:56:38;98253.84;;;20.15;44.22
43155;BME280;34212;51.018;13.586;2022-07-10T15:01:40;98252.84;;;19.98;44.61
43155;BME280;34212;51.018;13.586;2022-07-10T15:06:42;98252.03;;;19.97;44.91
43155;BME280;34212;51.018;13.586;2022-07-10T15:11:43;98248.97;;;20.05;45.15
43155;BME280;34212;51.018;13.586;2022-07-10T15:16:45;98239.53;;;19.96;44.66
43155;BME280;34212;51.018;13.586;2022-07-10T15:21:46;98242.66;;;19.81;44.68
43155;BME280;34212;51.018;13.586;2022-07-10T15:26:48;98241.47;;;19.77;45.16
43155;BME280;34212;51.018;13.586;2022-07-10T15:31:50;98235.88;;;19.91;45.54
43155;BME280;34212;51.018;13.586;2022-07-10T15:36:57;98221.78;;;20.00;44.53
43155;BME280;34212;51.018;13.586;2022-07-10T15:41:59;98215.06;;;19.91;44.29
43155;BME280;34212;51.018;13.586;2022-07-10T15:47:00;98211.88;;;19.94;44.53
43155;BME280;34212;51.018;13.586;2022-07-10T15:52:03;98207.25;;;20.13;44.50
43155;BME280;34212;51.018;13.586;2022-07-10T15:57:04;98211.03;;;20.36;44.92
43155;BME280;34212;51.018;13.586;2022-07-10T16:02:06;98201.59;;;20.26;44.00
43155;BME280;34212;51.018;13.586;2022-07-10T16:07:09;98200.44;;;20.46;44.07
43155;BME280;34212;51.018;13.586;2022-07-10T16:12:11;98205.00;;;20.75;43.30
43155;BME280;34212;51.018;13.586;2022-07-10T16:17:12;98202.63;;;20.67;43.14
43155;BME280;34212;51.018;13.586;2022-07-10T16:22:14;98199.91;;;20.67;43.68
43155;BME280;34212;51.018;13.586;2022-07-10T16:27:15;98202.84;;;20.77;43.19
43155;BME280;34212;51.018;13.586;2022-07-10T16:32:17;98199.53;;;20.99;43.35
43155;BME280;34212;51.018;13.586;2022-07-10T16:37:20;98206.63;;;21.00;41.96
43155;BME280;34212;51.018;13.586;2022-07-10T16:42:22;98196.63;;;20.77;42.25
43155;BME280;34212;51.018;13.586;2022-07-10T16:47:23;98189.91;;;20.56;42.78
43155;BME280;34212;51.018;13.586;2022-07-10T16:52:25;98202.81;;;20.42;43.30
43155;BME280;34212;51.018;13.586;2022-07-10T16:57:27;98193.97;;;20.35;43.97
43155;BME280;34212;51.018;13.586;2022-07-10T17:02:28;98200.69;;;20.33;43.96
43155;BME280;34212;51.018;13.586;2022-07-10T17:07:30;98193.25;;;20.28;43.79
43155;BME280;34212;51.018;13.586;2022-07-10T17:12:32;98197.84;;;20.27;43.50
43155;BME280;34212;51.018;13.586;2022-07-10T17:17:33;98197.59;;;20.17;43.87
43155;BME280;34212;51.018;13.586;2022-07-10T17:22:35;98191.66;;;20.08;44.10
43155;BME280;34212;51.018;13.586;2022-07-10T17:27:36;98184.84;;;20.06;44.11
43155;BME280;34212;51.018;13.586;2022-07-10T17:32:38;98180.28;;;20.06;44.08
43155;BME280;34212;51.018;13.586;2022-07-10T17:37:40;98188.16;;;20.08;44.43
43155;BME280;34212;51.018;13.586;2022-07-10T17:42:41;98192.38;;;20.04;44.40
43155;BME280;34212;51.018;13.586;2022-07-10T17:47:44;98184.72;;;20.01;44.40
43155;BME280;34212;51.018;13.586;2022-07-10T17:52:45;98193.75;;;19.95;44.88
43155;BME280;34212;51.018;13.586;2022-07-10T17:57:47;98196.47;;;19.95;45.14
43155;BME280;34212;51.018;13.586;2022-07-10T18:02:49;98192.47;;;19.97;45.81
43155;BME280;34212;51.018;13.586;2022-07-10T18:07:51;98191.88;;;19.95;45.45
43155;BME280;34212;51.018;13.586;2022-07-10T18:12:52;98198.00;;;19.91;45.85
43155;BME280;34212;51.018;13.586;2022-07-10T18:17:54;98199.63;;;19.92;46.37
43155;BME280;34212;51.018;13.586;2022-07-10T18:22:55;98195.41;;;19.96;47.07
43155;BME280;34212;51.018;13.586;2022-07-10T18:27:57;98197.91;;;19.97;47.46
43155;BME280;34212;51.018;13.586;2022-07-10T18:32:58;98194.59;;;19.95;48.12
43155;BME280;34212;51.018;13.586;2022-07-10T18:38:18;98194.91;;;19.87;48.15
43155;BME280;34212;51.018;13.586;2022-07-10T18:43:20;98193.34;;;19.79;48.28
43155;BME280;34212;51.018;13.586;2022-07-10T18:48:22;98192.03;;;19.70;48.60
43155;BME280;34212;51.018;13.586;2022-07-10T18:53:24;98204.59;;;19.65;48.90
43155;BME280;34212;51.018;13.586;2022-07-10T18:58:26;98200.88;;;19.59;49.21
43155;BME280;34212;51.018;13.586;2022-07-10T19:03:27;98199.31;;;19.51;49.67
43155;BME280;34212;51.018;13.586;2022-07-10T19:08:30;98203.75;;;19.46;50.05
43155;BME280;34212;51.018;13.586;2022-07-10T19:13:31;98218.63;;;19.36;50.21
43155;BME280;34212;51.018;13.586;2022-07-10T19:18:33;98226.28;;;19.21;49.84
43155;BME280;34212;51.018;13.586;2022-07-10T19:23:34;98231.41;;;19.11;49.78
43155;BME280;34212;51.018;13.586;2022-07-10T19:28:36;98229.00;;;19.03;49.69
43155;BME280;34212;51.018;13.586;2022-07-10T19:33:38;98231.84;;;18.89;49.81
43155;BME280;34212;51.018;13.586;2022-07-10T19:38:42;98221.16;;;18.76;49.72
43155;BME280;34212;51.018;13.586;2022-07-10T19:43:44;98249.03;;;18.70;50.05
43155;BME280;34212;51.018;13.586;2022-07-10T19:48:46;98244.78;;;18.56;49.89
43155;BME280;34212;51.018;13.586;2022-07-10T19:53:49;98249.59;;;18.54;49.85
43155;BME280;34212;51.018;13.586;2022-07-10T19:58:51;98251.94;;;18.43;49.63
43155;BME280;34212;51.018;13.586;2022-07-10T20:03:52;98256.56;;;18.36;49.49
43155;BME280;34212;51.018;13.586;2022-07-10T20:08:54;98264.03;;;18.34;49.25
43155;BME280;34212;51.018;13.586;2022-07-10T20:13:57;98261.41;;;18.28;49.48
43155;BME280;34212;51.018;13.586;2022-07-10T20:18:59;98263.09;;;18.22;49.64
43155;BME280;34212;51.018;13.586;2022-07-10T20:24:00;98265.19;;;18.20;49.91
43155;BME280;34212;51.018;13.586;2022-07-10T20:29:02;98264.38;;;18.19;49.86
43155;BME280;34212;51.018;13.586;2022-07-10T20:34:03;98275.38;;;18.18;49.89
43155;BME280;34212;51.018;13.586;2022-07-10T20:39:05;98272.50;;;18.13;50.31
43155;BME280;34212;51.018;13.586;2022-07-10T20:44:07;98267.94;;;18.13;50.28
43155;BME280;34212;51.018;13.586;2022-07-10T20:49:08;98268.16;;;18.12;50.47
43155;BME280;34212;51.018;13.586;2022-07-10T20:54:10;98274.22;;;18.07;50.48
43155;BME280;34212;51.018;13.586;2022-07-10T20:59:12;98276.28;;;18.05;50.71
43155;BME280;34212;51.018;13.586;2022-07-10T21:04:13;98277.38;;;17.97;51.01
43155;BME280;34212;51.018;13.586;2022-07-10T21:09:15;98287.59;;;17.89;51.22
43155;BME280;34212;51.018;13.586;2022-07-10T21:14:16;98283.88;;;17.83;51.49
43155;BME280;34212;51.018;13.586;2022-07-10T21:19:18;98284.31;;;17.80;51.72
43155;BME280;34212;51.018;13.586;2022-07-10T21:24:19;98280.34;;;17.76;51.55
43155;BME280;34212;51.018;13.586;2022-07-10T21:29:21;98293.00;;;17.69;51.89
43155;BME280;34212;51.018;13.586;2022-07-10T21:34:22;98293.44;;;17.66;52.16
43155;BME280;34212;51.018;13.586;2022-07-10T21:39:24;98288.91;;;17.66;52.13
43155;BME280;34212;51.018;13.586;2022-07-10T21:44:25;98297.00;;;17.66;52.39
43155;BME280;34212;51.018;13.586;2022-07-10T21:49:27;98302.97;;;17.68;52.38
43155;BME280;34212;51.018;13.586;2022-07-10T21:54:29;98295.72;;;17.69;52.62
43155;BME280;34212;51.018;13.586;2022-07-10T21:59:30;98298.63;;;17.67;52.68
43155;BME280;34212;51.018;13.586;2022-07-10T22:04:32;98295.94;;;17.67;52.79
43155;BME280;34212;51.018;13.586;2022-07-10T22:09:33;98304.63;;;17.69;52.45
43155;BME280;34212;51.018;13.586;2022-07-10T22:14:35;98302.16;;;17.68;52.63
43155;BME280;34212;51.018;13.586;2022-07-10T22:19:36;98307.34;;;17.63;52.95
43155;BME280;34212;51.018;13.586;2022-07-10T22:24:38;98307.19;;;17.58;53.12
43155;BME280;34212;51.018;13.586;2022-07-10T22:29:39;98303.66;;;17.57;53.19
43155;BME280;34212;51.018;13.586;2022-07-10T22:34:41;98306.97;;;17.52;53.35
43155;BME280;34212;51.018;13.586;2022-07-10T22:39:42;98302.00;;;17.49;54.00
43155;BME280;34212;51.018;13.586;2022-07-10T22:44:44;98299.97;;;17.45;54.19
43155;BME280;34212;51.018;13.586;2022-07-10T22:49:45;98303.28;;;17.40;54.75
43155;BME280;34212;51.018;13.586;2022-07-10T22:54:47;98304.34;;;17.39;55.24
43155;BME280;34212;51.018;13.586;2022-07-10T22:59:48;98310.16;;;17.36;54.96
43155;BME280;34212;51.018;13.586;2022-07-10T23:04:50;98307.44;;;17.36;55.62
43155;BME280;34212;51.018;13.586;2022-07-10T23:09:52;98305.38;;;17.31;55.88
43155;BME280;34212;51.018;13.586;2022-07-10T23:14:53;98299.56;;;17.28;56.20
43155;BME280;34212;51.018;13.586;2022-07-10T23:19:55;98298.34;;;17.24;56.33
43155;BME280;34212;51.018;13.586;2022-07-10T23:24:56;98299.41;;;17.23;56.54
43155;BME280;34212;51.018;13.586;2022-07-10T23:29:59;98301.03;;;17.24;57.00
43155;BME280;34212;51.018;13.586;2022-07-10T23:35:00;98302.50;;;17.20;57.28
43155;BME280;34212;51.018;13.586;2022-07-10T23:40:02;98303.94;;;17.16;57.21
43155;BME280;34212;51.018;13.586;2022-07-10T23:45:04;98293.59;;;17.06;57.39
43155;BME280;34212;51.018;13.586;2022-07-10T23:50:06;98295.69;;;16.97;57.73
43155;BME280;34212;51.018;13.586;2022-07-10T23:55:10;98302.75;;;16.85;57.91
